sensor_id;sensor_type;location;lat;lon;timestamp;P1;durP1;ratioP1;P2;durP2;ratioP2
44508;SDS011;30214;52.246;14.408;2024-01-30T00:01:58;13.52;;;6.60;;
44508;SDS011;30214;52.246;14.408;2024-01-30T00:04:25;13.50;;;6.72;;
44508;SDS011;30214;52.246;14.408;2024-01-30T00:06:53;13.77;;;6.90;;
44508;SDS011;30214;52.246;14.408;2024-01-30T00:09:20;16.42;;;7.50;;
44508;SDS011;30214;52.246;14.408;2024-01-30T00:11:47;11.77;;;6.78;;
44508;SDS011;30214;52.246;14.408;2024-01-30T00:14:15;15.93;;;7.30;;
44508;SDS011;30214;52.246;14.408;2024-01-30T00:16:51;11.07;;;6.60;;
44508;SDS011;30214;52.246;14.408;2024-01-30T00:19:18;13.43;;;6.65;;
44508;SDS011;30214;52.246;14.408;2024-01-30T00:21:45;14.95;;;7.07;;
44508;SDS011;30214;52.246;14.408;2024-01-30T00:24:13;13.65;;;6.47;;
44508;SDS011;30214;52.246;14.408;2024-01-30T00:26:40;13.77;;;6.93;;
44508;SDS011;30214;52.246;14.408;2024-01-30T00:29:07;12.52;;;6.93;;
44508;SDS011;30214;52.246;14.408;2024-01-30T00:31:36;15.18;;;7.13;;
44508;SDS011;30214;52.246;14.408;2024-01-30T00:34:03;12.20;;;6.80;;
44508;SDS011;30214;52.246;14.408;2024-01-30T00:36:30;11.90;;;6.47;;
44508;SDS011;30214;52.246;14.408;2024-01-30T00:38:59;16.25;;;7.35;;
44508;SDS011;30214;52.246;14.408;2024-01-30T00:41:26;14.20;;;7.20;;
44508;SDS011;30214;52.246;14.408;2024-01-30T00:43:53;14.95;;;6.30;;
44508;SDS011;30214;52.246;14.408;2024-01-30T00:46:20;11.90;;;6.18;;
44508;SDS011;30214;52.246;14.408;2024-01-30T00:48:49;15.15;;;6.55;;
44508;SDS011;30214;52.246;14.408;2024-01-30T00:51:16;12.32;;;6.55;;
44508;SDS011;30214;52.246;14.408;2024-01-30T00:53:43;14.00;;;6.22;;
44508;SDS011;30214;52.246;14.408;2024-01-30T00:56:11;13.18;;;6.88;;
44508;SDS011;30214;52.246;14.408;2024-01-30T00:58:38;13.27;;;6.90;;
44508;SDS011;30214;52.246;14.408;2024-01-30T01:01:05;19.60;;;7.07;;
44508;SDS011;30214;52.246;14.408;2024-01-30T01:03:33;10.48;;;6.45;;
44508;SDS011;30214;52.246;14.408;2024-01-30T01:06:02;11.82;;;6.20;;
44508;SDS011;30214;52.246;14.408;2024-01-30T01:08:29;12.00;;;7.15;;
44508;SDS011;30214;52.246;14.408;2024-01-30T01:10:57;13.77;;;6.95;;
44508;SDS011;30214;52.246;14.408;2024-01-30T01:13:24;13.00;;;6.28;;
44508;SDS011;30214;52.246;14.408;2024-01-30T01:15:51;10.80;;;6.53;;
44508;SDS011;30214;52.246;14.408;2024-01-30T01:18:18;15.15;;;6.95;;
44508;SDS011;30214;52.246;14.408;2024-01-30T01:20:48;18.98;;;6.95;;
44508;SDS011;30214;52.246;14.408;2024-01-30T01:23:17;12.07;;;6.80;;
44508;SDS011;30214;52.246;14.408;2024-01-30T01:25:44;15.27;;;6.07;;
44508;SDS011;30214;52.246;14.408;2024-01-30T01:28:11;14.73;;;7.05;;
44508;SDS011;30214;52.246;14.408;2024-01-30T01:30:39;10.98;;;6.05;;
44508;SDS011;30214;52.246;14.408;2024-01-30T01:33:06;12.05;;;6.85;;
44508;SDS011;30214;52.246;14.408;2024-01-30T01:35:34;11.98;;;6.60;;
44508;SDS011;30214;52.246;14.408;2024-01-30T01:38:01;12.02;;;5.80;;
44508;SDS011;30214;52.246;14.408;2024-01-30T01:40:30;11.82;;;6.90;;
44508;SDS011;30214;52.246;14.408;2024-01-30T01:42:57;12.80;;;7.07;;
44508;SDS011;30214;52.246;14.408;2024-01-30T01:45:24;11.13;;;6.43;;
44508;SDS011;30214;52.246;14.408;2024-01-30T01:47:51;12.80;;;6.80;;
44508;SDS011;30214;52.246;14.408;2024-01-30T01:50:19;9.15;;;6.22;;
44508;SDS011;30214;52.246;14.408;2024-01-30T01:52:48;14.43;;;5.90;;
44508;SDS011;30214;52.246;14.408;2024-01-30T01:55:16;10.65;;;5.90;;
44508;SDS011;30214;52.246;14.408;2024-01-30T01:57:53;12.57;;;6.05;;
44508;SDS011;30214;52.246;14.408;2024-01-30T02:00:20;12.20;;;6.25;;
44508;SDS011;30214;52.246;14.408;2024-01-30T02:02:47;11.95;;;5.20;;
44508;SDS011;30214;52.246;14.408;2024-01-30T02:05:16;11.82;;;6.35;;
44508;SDS011;30214;52.246;14.408;2024-01-30T02:07:44;11.57;;;5.80;;
44508;SDS011;30214;52.246;14.408;2024-01-30T02:10:11;12.48;;;5.95;;
44508;SDS011;30214;52.246;14.408;2024-01-30T02:12:40;11.85;;;6.10;;
44508;SDS011;30214;52.246;14.408;2024-01-30T02:15:08;14.48;;;6.43;;
44508;SDS011;30214;52.246;14.408;2024-01-30T02:17:40;11.45;;;5.90;;
44508;SDS011;30214;52.246;14.408;2024-01-30T02:20:07;11.23;;;6.00;;
44508;SDS011;30214;52.246;14.408;2024-01-30T02:22:39;11.65;;;6.00;;
44508;SDS011;30214;52.246;14.408;2024-01-30T02:25:08;11.38;;;5.72;;
44508;SDS011;30214;52.246;14.408;2024-01-30T02:27:35;11.70;;;5.97;;
44508;SDS011;30214;52.246;14.408;2024-01-30T02:30:05;10.75;;;5.88;;
44508;SDS011;30214;52.246;14.408;2024-01-30T02:32:36;8.95;;;5.47;;
44508;SDS011;30214;52.246;14.408;2024-01-30T02:35:03;11.35;;;6.03;;
44508;SDS011;30214;52.246;14.408;2024-01-30T02:37:31;13.73;;;6.57;;
44508;SDS011;30214;52.246;14.408;2024-01-30T02:39:59;10.55;;;5.97;;
44508;SDS011;30214;52.246;14.408;2024-01-30T02:42:26;13.07;;;6.15;;
44508;SDS011;30214;52.246;14.408;2024-01-30T02:44:53;8.25;;;5.32;;
44508;SDS011;30214;52.246;14.408;2024-01-30T02:47:21;13.63;;;5.68;;
44508;SDS011;30214;52.246;14.408;2024-01-30T02:49:48;14.40;;;5.78;;
44508;SDS011;30214;52.246;14.408;2024-01-30T02:52:15;12.40;;;5.70;;
44508;SDS011;30214;52.246;14.408;2024-01-30T02:54:42;11.43;;;5.60;;
44508;SDS011;30214;52.246;14.408;2024-01-30T02:57:11;11.10;;;4.93;;
44508;SDS011;30214;52.246;14.408;2024-01-30T02:59:38;11.43;;;5.63;;
44508;SDS011;30214;52.246;14.408;2024-01-30T03:02:05;10.77;;;5.80;;
44508;SDS011;30214;52.246;14.408;2024-01-30T03:04:32;10.27;;;5.80;;
44508;SDS011;30214;52.246;14.408;2024-01-30T03:07:00;11.40;;;6.10;;
44508;SDS011;30214;52.246;14.408;2024-01-30T03:09:27;10.32;;;5.72;;
44508;SDS011;30214;52.246;14.408;2024-01-30T03:11:54;10.90;;;5.45;;
44508;SDS011;30214;52.246;14.408;2024-01-30T03:14:24;10.43;;;5.57;;
44508;SDS011;30214;52.246;14.408;2024-01-30T03:16:51;14.18;;;5.93;;
44508;SDS011;30214;52.246;14.408;2024-01-30T03:19:18;9.63;;;5.55;;
44508;SDS011;30214;52.246;14.408;2024-01-30T03:21:45;11.60;;;5.72;;
44508;SDS011;30214;52.246;14.408;2024-01-30T03:24:15;12.48;;;5.72;;
44508;SDS011;30214;52.246;14.408;2024-01-30T03:26:42;12.57;;;6.63;;
44508;SDS011;30214;52.246;14.408;2024-01-30T03:29:13;11.52;;;5.63;;
44508;SDS011;30214;52.246;14.408;2024-01-30T03:31:42;13.38;;;6.45;;
44508;SDS011;30214;52.246;14.408;2024-01-30T03:34:12;12.82;;;5.57;;
44508;SDS011;30214;52.246;14.408;2024-01-30T03:36:39;13.35;;;7.53;;
44508;SDS011;30214;52.246;14.408;2024-01-30T03:39:06;15.15;;;7.43;;
44508;SDS011;30214;52.246;14.408;2024-01-30T03:41:34;14.95;;;6.93;;
44508;SDS011;30214;52.246;14.408;2024-01-30T03:44:01;11.35;;;5.68;;
44508;SDS011;30214;52.246;14.408;2024-01-30T03:46:32;10.45;;;6.00;;
44508;SDS011;30214;52.246;14.408;2024-01-30T03:49:00;12.52;;;6.32;;
44508;SDS011;30214;52.246;14.408;2024-01-30T03:51:28;10.05;;;5.72;;
44508;SDS011;30214;52.246;14.408;2024-01-30T03:53:55;12.00;;;5.55;;
44508;SDS011;30214;52.246;14.408;2024-01-30T03:56:22;11.77;;;5.70;;
44508;SDS011;30214;52.246;14.408;2024-01-30T03:59:04;12.88;;;6.07;;
44508;SDS011;30214;52.246;14.408;2024-01-30T04:01:34;10.77;;;5.78;;
44508;SDS011;30214;52.246;14.408;2024-01-30T04:04:04;14.07;;;6.18;;
44508;SDS011;30214;52.246;14.408;2024-01-30T04:06:32;11.43;;;6.10;;
44508;SDS011;30214;52.246;14.408;2024-01-30T04:08:59;13.70;;;6.30;;
44508;SDS011;30214;52.246;14.408;2024-01-30T04:11:26;11.63;;;5.95;;
44508;SDS011;30214;52.246;14.408;2024-01-30T04:13:53;12.80;;;6.13;;
44508;SDS011;30214;52.246;14.408;2024-01-30T04:16:21;12.93;;;6.63;;
44508;SDS011;30214;52.246;14.408;2024-01-30T04:18:48;11.63;;;5.80;;
44508;SDS011;30214;52.246;14.408;2024-01-30T04:21:17;15.00;;;6.20;;
44508;SDS011;30214;52.246;14.408;2024-01-30T04:23:44;12.25;;;5.80;;
44508;SDS011;30214;52.246;14.408;2024-01-30T04:26:11;12.13;;;5.93;;
44508;SDS011;30214;52.246;14.408;2024-01-30T04:28:38;12.68;;;6.57;;
44508;SDS011;30214;52.246;14.408;2024-01-30T04:31:07;9.13;;;5.82;;
44508;SDS011;30214;52.246;14.408;2024-01-30T04:33:35;12.70;;;7.65;;
44508;SDS011;30214;52.246;14.408;2024-01-30T04:36:03;13.38;;;6.97;;
44508;SDS011;30214;52.246;14.408;2024-01-30T04:38:33;22.33;;;13.48;;
44508;SDS011;30214;52.246;14.408;2024-01-30T04:41:00;11.95;;;7.65;;
44508;SDS011;30214;52.246;14.408;2024-01-30T04:43:27;15.50;;;7.60;;
44508;SDS011;30214;52.246;14.408;2024-01-30T04:45:55;16.58;;;7.95;;
44508;SDS011;30214;52.246;14.408;2024-01-30T04:48:22;15.07;;;8.52;;
44508;SDS011;30214;52.246;14.408;2024-01-30T04:50:49;15.23;;;8.95;;
44508;SDS011;30214;52.246;14.408;2024-01-30T04:53:16;17.77;;;9.23;;
44508;SDS011;30214;52.246;14.408;2024-01-30T04:55:45;16.75;;;10.30;;
44508;SDS011;30214;52.246;14.408;2024-01-30T04:58:13;19.40;;;9.90;;
44508;SDS011;30214;52.246;14.408;2024-01-30T05:00:40;17.60;;;8.82;;
44508;SDS011;30214;52.246;14.408;2024-01-30T05:03:07;18.45;;;9.02;;
44508;SDS011;30214;52.246;14.408;2024-01-30T05:05:35;16.42;;;7.80;;
44508;SDS011;30214;52.246;14.408;2024-01-30T05:08:02;15.32;;;8.23;;
44508;SDS011;30214;52.246;14.408;2024-01-30T05:10:30;15.27;;;6.93;;
44508;SDS011;30214;52.246;14.408;2024-01-30T05:13:09;13.18;;;6.43;;
44508;SDS011;30214;52.246;14.408;2024-01-30T05:15:47;12.88;;;6.72;;
44508;SDS011;30214;52.246;14.408;2024-01-30T05:18:14;14.18;;;7.70;;
44508;SDS011;30214;52.246;14.408;2024-01-30T05:20:41;14.40;;;6.40;;
44508;SDS011;30214;52.246;14.408;2024-01-30T05:23:08;15.25;;;7.65;;
44508;SDS011;30214;52.246;14.408;2024-01-30T05:25:38;13.52;;;7.30;;
44508;SDS011;30214;52.246;14.408;2024-01-30T05:28:05;13.18;;;7.50;;
44508;SDS011;30214;52.246;14.408;2024-01-30T05:30:34;14.88;;;7.15;;
44508;SDS011;30214;52.246;14.408;2024-01-30T05:33:01;17.48;;;8.85;;
44508;SDS011;30214;52.246;14.408;2024-01-30T05:35:29;16.02;;;8.20;;
44508;SDS011;30214;52.246;14.408;2024-01-30T05:37:59;15.82;;;8.02;;
44508;SDS011;30214;52.246;14.408;2024-01-30T05:40:29;16.63;;;8.35;;
44508;SDS011;30214;52.246;14.408;2024-01-30T05:42:56;20.70;;;9.27;;
44508;SDS011;30214;52.246;14.408;2024-01-30T05:45:27;18.80;;;8.65;;
44508;SDS011;30214;52.246;14.408;2024-01-30T05:47:54;14.73;;;8.25;;
44508;SDS011;30214;52.246;14.408;2024-01-30T05:50:21;17.25;;;9.27;;
44508;SDS011;30214;52.246;14.408;2024-01-30T05:52:50;19.48;;;10.07;;
44508;SDS011;30214;52.246;14.408;2024-01-30T05:55:17;16.20;;;8.80;;
44508;SDS011;30214;52.246;14.408;2024-01-30T05:57:45;14.15;;;7.82;;
44508;SDS011;30214;52.246;14.408;2024-01-30T06:00:12;15.80;;;8.23;;
44508;SDS011;30214;52.246;14.408;2024-01-30T06:02:42;19.17;;;9.32;;
44508;SDS011;30214;52.246;14.408;2024-01-30T06:05:10;18.05;;;9.07;;
44508;SDS011;30214;52.246;14.408;2024-01-30T06:07:38;20.75;;;9.32;;
44508;SDS011;30214;52.246;14.408;2024-01-30T06:10:05;18.13;;;10.00;;
44508;SDS011;30214;52.246;14.408;2024-01-30T06:12:37;16.65;;;9.40;;
44508;SDS011;30214;52.246;14.408;2024-01-30T06:15:05;15.35;;;9.10;;
44508;SDS011;30214;52.246;14.408;2024-01-30T06:17:34;16.42;;;8.73;;
44508;SDS011;30214;52.246;14.408;2024-01-30T06:20:02;16.73;;;8.73;;
44508;SDS011;30214;52.246;14.408;2024-01-30T06:22:31;18.38;;;8.88;;
44508;SDS011;30214;52.246;14.408;2024-01-30T06:24:58;17.83;;;9.30;;
44508;SDS011;30214;52.246;14.408;2024-01-30T06:27:26;17.02;;;9.38;;
44508;SDS011;30214;52.246;14.408;2024-01-30T06:29:53;17.67;;;8.40;;
44508;SDS011;30214;52.246;14.408;2024-01-30T06:32:20;21.95;;;9.88;;
44508;SDS011;30214;52.246;14.408;2024-01-30T06:34:47;14.00;;;8.93;;
44508;SDS011;30214;52.246;14.408;2024-01-30T06:37:16;15.70;;;8.50;;
44508;SDS011;30214;52.246;14.408;2024-01-30T06:39:43;16.17;;;8.15;;
44508;SDS011;30214;52.246;14.408;2024-01-30T06:42:10;17.20;;;9.10;;
44508;SDS011;30214;52.246;14.408;2024-01-30T06:44:37;27.25;;;14.48;;
44508;SDS011;30214;52.246;14.408;2024-01-30T06:47:04;29.40;;;15.25;;
44508;SDS011;30214;52.246;14.408;2024-01-30T06:49:31;32.42;;;16.60;;
44508;SDS011;30214;52.246;14.408;2024-01-30T06:51:59;46.47;;;20.98;;
44508;SDS011;30214;52.246;14.408;2024-01-30T06:54:27;60.28;;;25.65;;
44508;SDS011;30214;52.246;14.408;2024-01-30T06:56:55;45.55;;;20.50;;
44508;SDS011;30214;52.246;14.408;2024-01-30T06:59:22;36.05;;;16.02;;
44508;SDS011;30214;52.246;14.408;2024-01-30T07:01:52;34.83;;;16.23;;
44508;SDS011;30214;52.246;14.408;2024-01-30T07:04:19;31.67;;;18.33;;
44508;SDS011;30214;52.246;14.408;2024-01-30T07:06:46;37.25;;;17.75;;
44508;SDS011;30214;52.246;14.408;2024-01-30T07:09:13;39.05;;;17.85;;
44508;SDS011;30214;52.246;14.408;2024-01-30T07:11:42;37.20;;;20.30;;
44508;SDS011;30214;52.246;14.408;2024-01-30T07:14:09;30.58;;;17.08;;
44508;SDS011;30214;52.246;14.408;2024-01-30T07:16:36;35.15;;;18.98;;
44508;SDS011;30214;52.246;14.408;2024-01-30T07:19:03;26.15;;;15.40;;
44508;SDS011;30214;52.246;14.408;2024-01-30T07:21:34;30.58;;;14.40;;
44508;SDS011;30214;52.246;14.408;2024-01-30T07:24:01;23.52;;;12.48;;
44508;SDS011;30214;52.246;14.408;2024-01-30T07:26:29;24.05;;;11.50;;
44508;SDS011;30214;52.246;14.408;2024-01-30T07:28:57;30.88;;;14.18;;
44508;SDS011;30214;52.246;14.408;2024-01-30T07:31:25;24.80;;;12.60;;
44508;SDS011;30214;52.246;14.408;2024-01-30T07:33:52;23.95;;;12.63;;
44508;SDS011;30214;52.246;14.408;2024-01-30T07:36:19;23.63;;;12.38;;
44508;SDS011;30214;52.246;14.408;2024-01-30T07:38:47;19.48;;;11.55;;
44508;SDS011;30214;52.246;14.408;2024-01-30T07:41:14;24.00;;;12.30;;
44508;SDS011;30214;52.246;14.408;2024-01-30T07:43:42;21.65;;;11.75;;
44508;SDS011;30214;52.246;14.408;2024-01-30T07:46:11;18.70;;;11.90;;
44508;SDS011;30214;52.246;14.408;2024-01-30T07:48:38;22.08;;;13.00;;
44508;SDS011;30214;52.246;14.408;2024-01-30T07:51:06;19.63;;;11.75;;
44508;SDS011;30214;52.246;14.408;2024-01-30T07:53:33;22.60;;;12.55;;
44508;SDS011;30214;52.246;14.408;2024-01-30T07:56:00;21.13;;;12.02;;
44508;SDS011;30214;52.246;14.408;2024-01-30T07:58:27;20.33;;;12.82;;
44508;SDS011;30214;52.246;14.408;2024-01-30T08:00:58;20.08;;;11.95;;
44508;SDS011;30214;52.246;14.408;2024-01-30T08:03:27;22.73;;;13.55;;
44508;SDS011;30214;52.246;14.408;2024-01-30T08:05:54;20.95;;;12.05;;
44508;SDS011;30214;52.246;14.408;2024-01-30T08:08:21;18.88;;;10.45;;
44508;SDS011;30214;52.246;14.408;2024-01-30T08:10:48;17.60;;;10.68;;
44508;SDS011;30214;52.246;14.408;2024-01-30T08:13:16;17.60;;;10.88;;
44508;SDS011;30214;52.246;14.408;2024-01-30T08:15:46;21.27;;;11.32;;
44508;SDS011;30214;52.246;14.408;2024-01-30T08:18:13;18.45;;;10.82;;
44508;SDS011;30214;52.246;14.408;2024-01-30T08:20:42;15.73;;;10.20;;
44508;SDS011;30214;52.246;14.408;2024-01-30T08:23:09;15.30;;;8.43;;
44508;SDS011;30214;52.246;14.408;2024-01-30T08:25:36;19.60;;;9.45;;
44508;SDS011;30214;52.246;14.408;2024-01-30T08:28:04;18.67;;;9.93;;
44508;SDS011;30214;52.246;14.408;2024-01-30T08:30:32;19.45;;;9.93;;
44508;SDS011;30214;52.246;14.408;2024-01-30T08:32:59;19.55;;;10.25;;
44508;SDS011;30214;52.246;14.408;2024-01-30T08:35:27;14.45;;;9.52;;
44508;SDS011;30214;52.246;14.408;2024-01-30T08:37:58;16.80;;;9.45;;
44508;SDS011;30214;52.246;14.408;2024-01-30T08:40:25;16.98;;;10.13;;
44508;SDS011;30214;52.246;14.408;2024-01-30T08:42:52;19.17;;;10.43;;
44508;SDS011;30214;52.246;14.408;2024-01-30T08:45:19;16.40;;;8.93;;
44508;SDS011;30214;52.246;14.408;2024-01-30T08:47:46;15.20;;;8.93;;
44508;SDS011;30214;52.246;14.408;2024-01-30T08:50:14;17.30;;;8.38;;
44508;SDS011;30214;52.246;14.408;2024-01-30T08:52:41;20.17;;;9.10;;
44508;SDS011;30214;52.246;14.408;2024-01-30T08:55:10;17.17;;;8.52;;
44508;SDS011;30214;52.246;14.408;2024-01-30T08:57:37;14.93;;;8.13;;
44508;SDS011;30214;52.246;14.408;2024-01-30T09:00:05;14.55;;;8.38;;
44508;SDS011;30214;52.246;14.408;2024-01-30T09:02:34;14.98;;;7.80;;
44508;SDS011;30214;52.246;14.408;2024-01-30T09:05:01;14.52;;;7.65;;
44508;SDS011;30214;52.246;14.408;2024-01-30T09:07:29;17.80;;;8.50;;
44508;SDS011;30214;52.246;14.408;2024-01-30T09:09:56;15.75;;;8.23;;
44508;SDS011;30214;52.246;14.408;2024-01-30T09:12:25;14.30;;;8.40;;
44508;SDS011;30214;52.246;14.408;2024-01-30T09:14:52;15.93;;;8.57;;
44508;SDS011;30214;52.246;14.408;2024-01-30T09:17:20;16.13;;;8.57;;
44508;SDS011;30214;52.246;14.408;2024-01-30T09:19:47;15.68;;;8.02;;
44508;SDS011;30214;52.246;14.408;2024-01-30T09:22:14;15.68;;;7.93;;
44508;SDS011;30214;52.246;14.408;2024-01-30T09:24:41;17.95;;;7.75;;
44508;SDS011;30214;52.246;14.408;2024-01-30T09:27:08;12.23;;;7.50;;
44508;SDS011;30214;52.246;14.408;2024-01-30T09:29:37;15.23;;;8.15;;
44508;SDS011;30214;52.246;14.408;2024-01-30T09:32:10;14.80;;;7.50;;
44508;SDS011;30214;52.246;14.408;2024-01-30T09:34:38;16.30;;;7.93;;
44508;SDS011;30214;52.246;14.408;2024-01-30T09:37:05;15.48;;;8.02;;
44508;SDS011;30214;52.246;14.408;2024-01-30T09:39:32;14.35;;;7.95;;
44508;SDS011;30214;52.246;14.408;2024-01-30T09:42:01;17.38;;;8.38;;
44508;SDS011;30214;52.246;14.408;2024-01-30T09:44:54;14.57;;;8.02;;
44508;SDS011;30214;52.246;14.408;2024-01-30T09:47:22;17.38;;;8.20;;
44508;SDS011;30214;52.246;14.408;2024-01-30T09:49:49;15.80;;;8.38;;
44508;SDS011;30214;52.246;14.408;2024-01-30T09:52:17;19.92;;;8.25;;
44508;SDS011;30214;52.246;14.408;2024-01-30T09:54:45;16.85;;;7.55;;
44508;SDS011;30214;52.246;14.408;2024-01-30T09:57:13;14.27;;;7.20;;
44508;SDS011;30214;52.246;14.408;2024-01-30T09:59:41;15.68;;;7.90;;
44508;SDS011;30214;52.246;14.408;2024-01-30T10:02:10;17.00;;;8.43;;
44508;SDS011;30214;52.246;14.408;2024-01-30T10:04:37;15.38;;;7.43;;
44508;SDS011;30214;52.246;14.408;2024-01-30T10:07:04;16.98;;;7.38;;
44508;SDS011;30214;52.246;14.408;2024-01-30T10:09:32;15.50;;;7.55;;
44508;SDS011;30214;52.246;14.408;2024-01-30T10:12:01;14.93;;;7.53;;
44508;SDS011;30214;52.246;14.408;2024-01-30T10:14:31;12.63;;;7.47;;
44508;SDS011;30214;52.246;14.408;2024-01-30T10:16:58;13.85;;;7.30;;
44508;SDS011;30214;52.246;14.408;2024-01-30T10:19:28;13.63;;;7.88;;
44508;SDS011;30214;52.246;14.408;2024-01-30T10:21:55;13.80;;;7.68;;
44508;SDS011;30214;52.246;14.408;2024-01-30T10:24:26;13.25;;;7.45;;
44508;SDS011;30214;52.246;14.408;2024-01-30T10:26:54;13.27;;;7.78;;
44508;SDS011;30214;52.246;14.408;2024-01-30T10:29:22;15.18;;;7.47;;
44508;SDS011;30214;52.246;14.408;2024-01-30T10:34:35;13.07;;;6.97;;
44508;SDS011;30214;52.246;14.408;2024-01-30T10:37:06;12.13;;;6.80;;
44508;SDS011;30214;52.246;14.408;2024-01-30T10:39:40;11.05;;;7.00;;
44508;SDS011;30214;52.246;14.408;2024-01-30T10:42:10;15.27;;;7.30;;
44508;SDS011;30214;52.246;14.408;2024-01-30T10:44:43;14.88;;;7.82;;
44508;SDS011;30214;52.246;14.408;2024-01-30T10:47:21;12.15;;;6.97;;
44508;SDS011;30214;52.246;14.408;2024-01-30T10:49:55;14.80;;;7.45;;
44508;SDS011;30214;52.246;14.408;2024-01-30T10:52:23;13.60;;;7.53;;
44508;SDS011;30214;52.246;14.408;2024-01-30T10:54:53;12.15;;;7.70;;
44508;SDS011;30214;52.246;14.408;2024-01-30T10:57:22;12.55;;;7.38;;
44508;SDS011;30214;52.246;14.408;2024-01-30T10:59:51;12.98;;;6.97;;
44508;SDS011;30214;52.246;14.408;2024-01-30T11:02:23;13.65;;;7.35;;
44508;SDS011;30214;52.246;14.408;2024-01-30T11:04:56;15.50;;;7.90;;
44508;SDS011;30214;52.246;14.408;2024-01-30T11:07:25;13.38;;;7.00;;
44508;SDS011;30214;52.246;14.408;2024-01-30T11:09:59;15.65;;;7.65;;
44508;SDS011;30214;52.246;14.408;2024-01-30T11:12:29;13.70;;;7.07;;
44508;SDS011;30214;52.246;14.408;2024-01-30T11:15:05;13.35;;;7.22;;
44508;SDS011;30214;52.246;14.408;2024-01-30T11:17:44;14.20;;;7.32;;
44508;SDS011;30214;52.246;14.408;2024-01-30T11:20:15;14.98;;;7.78;;
44508;SDS011;30214;52.246;14.408;2024-01-30T11:22:49;14.05;;;7.28;;
44508;SDS011;30214;52.246;14.408;2024-01-30T11:25:19;13.35;;;7.53;;
44508;SDS011;30214;52.246;14.408;2024-01-30T11:27:49;12.90;;;6.90;;
44508;SDS011;30214;52.246;14.408;2024-01-30T11:30:21;11.60;;;7.22;;
44508;SDS011;30214;52.246;14.408;2024-01-30T11:33:03;16.40;;;7.38;;
44508;SDS011;30214;52.246;14.408;2024-01-30T11:35:37;15.63;;;7.30;;
44508;SDS011;30214;52.246;14.408;2024-01-30T11:38:09;14.25;;;6.72;;
44508;SDS011;30214;52.246;14.408;2024-01-30T11:40:39;13.75;;;7.03;;
44508;SDS011;30214;52.246;14.408;2024-01-30T11:43:07;12.45;;;6.85;;
44508;SDS011;30214;52.246;14.408;2024-01-30T11:45:35;13.98;;;6.93;;
44508;SDS011;30214;52.246;14.408;2024-01-30T11:48:04;11.50;;;6.97;;
44508;SDS011;30214;52.246;14.408;2024-01-30T11:50:37;13.50;;;7.07;;
44508;SDS011;30214;52.246;14.408;2024-01-30T11:53:05;13.93;;;6.82;;
44508;SDS011;30214;52.246;14.408;2024-01-30T11:55:33;13.15;;;6.80;;
44508;SDS011;30214;52.246;14.408;2024-01-30T11:58:01;13.82;;;6.50;;
44508;SDS011;30214;52.246;14.408;2024-01-30T12:00:30;12.13;;;6.57;;
44508;SDS011;30214;52.246;14.408;2024-01-30T12:02:59;12.60;;;6.10;;
44508;SDS011;30214;52.246;14.408;2024-01-30T12:05:27;10.32;;;6.45;;
44508;SDS011;30214;52.246;14.408;2024-01-30T12:07:56;9.85;;;6.10;;
44508;SDS011;30214;52.246;14.408;2024-01-30T12:10:24;10.57;;;6.03;;
44508;SDS011;30214;52.246;14.408;2024-01-30T12:12:52;11.43;;;6.43;;
44508;SDS011;30214;52.246;14.408;2024-01-30T12:15:21;12.18;;;5.75;;
44508;SDS011;30214;52.246;14.408;2024-01-30T12:17:49;10.02;;;5.82;;
44508;SDS011;30214;52.246;14.408;2024-01-30T12:20:18;16.45;;;6.78;;
44508;SDS011;30214;52.246;14.408;2024-01-30T12:22:47;10.60;;;5.75;;
44508;SDS011;30214;52.246;14.408;2024-01-30T12:25:16;10.95;;;5.80;;
44508;SDS011;30214;52.246;14.408;2024-01-30T12:27:45;10.80;;;5.32;;
44508;SDS011;30214;52.246;14.408;2024-01-30T12:30:15;14.13;;;5.63;;
44508;SDS011;30214;52.246;14.408;2024-01-30T12:32:44;12.23;;;6.18;;
44508;SDS011;30214;52.246;14.408;2024-01-30T12:35:13;10.85;;;5.70;;
44508;SDS011;30214;52.246;14.408;2024-01-30T12:37:42;12.07;;;6.13;;
44508;SDS011;30214;52.246;14.408;2024-01-30T12:40:13;12.13;;;6.03;;
44508;SDS011;30214;52.246;14.408;2024-01-30T12:42:43;10.30;;;6.07;;
44508;SDS011;30214;52.246;14.408;2024-01-30T12:45:17;9.43;;;5.85;;
44508;SDS011;30214;52.246;14.408;2024-01-30T12:47:47;11.53;;;6.53;;
44508;SDS011;30214;52.246;14.408;2024-01-30T12:50:14;10.57;;;6.22;;
44508;SDS011;30214;52.246;14.408;2024-01-30T12:52:42;9.88;;;6.00;;
44508;SDS011;30214;52.246;14.408;2024-01-30T12:55:10;12.52;;;6.13;;
44508;SDS011;30214;52.246;14.408;2024-01-30T12:57:38;11.02;;;5.55;;
44508;SDS011;30214;52.246;14.408;2024-01-30T13:00:07;11.32;;;6.20;;
44508;SDS011;30214;52.246;14.408;2024-01-30T13:02:35;12.75;;;6.40;;
44508;SDS011;30214;52.246;14.408;2024-01-30T13:05:03;13.05;;;6.53;;
44508;SDS011;30214;52.246;14.408;2024-01-30T13:07:30;12.48;;;5.97;;
44508;SDS011;30214;52.246;14.408;2024-01-30T13:09:58;9.52;;;5.18;;
44508;SDS011;30214;52.246;14.408;2024-01-30T13:12:28;11.57;;;6.00;;
44508;SDS011;30214;52.246;14.408;2024-01-30T13:14:57;9.77;;;6.10;;
44508;SDS011;30214;52.246;14.408;2024-01-30T13:17:30;12.13;;;5.82;;
44508;SDS011;30214;52.246;14.408;2024-01-30T13:19:58;11.30;;;5.60;;
44508;SDS011;30214;52.246;14.408;2024-01-30T13:22:26;10.27;;;5.90;;
44508;SDS011;30214;52.246;14.408;2024-01-30T13:24:53;10.82;;;5.63;;
44508;SDS011;30214;52.246;14.408;2024-01-30T13:27:22;10.95;;;5.72;;
44508;SDS011;30214;52.246;14.408;2024-01-30T13:29:49;10.65;;;5.63;;
44508;SDS011;30214;52.246;14.408;2024-01-30T13:32:16;10.05;;;5.55;;
44508;SDS011;30214;52.246;14.408;2024-01-30T13:34:44;9.95;;;5.70;;
44508;SDS011;30214;52.246;14.408;2024-01-30T13:37:12;17.52;;;5.35;;
44508;SDS011;30214;52.246;14.408;2024-01-30T13:39:39;9.80;;;5.38;;
44508;SDS011;30214;52.246;14.408;2024-01-30T13:42:06;11.57;;;5.72;;
44508;SDS011;30214;52.246;14.408;2024-01-30T13:44:35;9.57;;;5.57;;
44508;SDS011;30214;52.246;14.408;2024-01-30T13:47:03;13.20;;;7.10;;
44508;SDS011;30214;52.246;14.408;2024-01-30T13:49:31;14.93;;;8.98;;
44508;SDS011;30214;52.246;14.408;2024-01-30T13:51:59;20.55;;;11.65;;
44508;SDS011;30214;52.246;14.408;2024-01-30T13:54:28;20.35;;;12.27;;
44508;SDS011;30214;52.246;14.408;2024-01-30T13:56:55;18.98;;;9.95;;
44508;SDS011;30214;52.246;14.408;2024-01-30T13:59:24;17.23;;;9.82;;
44508;SDS011;30214;52.246;14.408;2024-01-30T14:01:51;48.65;;;24.88;;
44508;SDS011;30214;52.246;14.408;2024-01-30T14:04:19;46.75;;;23.30;;
44508;SDS011;30214;52.246;14.408;2024-01-30T14:06:46;41.95;;;20.48;;
44508;SDS011;30214;52.246;14.408;2024-01-30T14:09:15;28.20;;;15.10;;
44508;SDS011;30214;52.246;14.408;2024-01-30T14:11:42;20.75;;;11.00;;
44508;SDS011;30214;52.246;14.408;2024-01-30T14:14:10;18.83;;;10.65;;
44508;SDS011;30214;52.246;14.408;2024-01-30T14:16:37;16.35;;;10.07;;
44508;SDS011;30214;52.246;14.408;2024-01-30T14:19:04;21.25;;;10.88;;
44508;SDS011;30214;52.246;14.408;2024-01-30T14:21:31;22.50;;;12.32;;
44508;SDS011;30214;52.246;14.408;2024-01-30T14:23:58;18.42;;;11.38;;
44508;SDS011;30214;52.246;14.408;2024-01-30T14:26:27;15.38;;;9.23;;
44508;SDS011;30214;52.246;14.408;2024-01-30T14:28:54;22.20;;;12.32;;
44508;SDS011;30214;52.246;14.408;2024-01-30T14:31:21;23.58;;;11.57;;